Time;durP1;ratioP1;P1;durP2;ratioP2;P2;SDS_P1;SDS_P2;PMS_P1;PMS_P2;Temp;Humidity;BMP_temperature;BMP_pressure;BME280_temperature;BME280_humidity;BME280_pressure;Samples;Min_cycle;Max_cycle;Signal;HPM_P1;HPM_P2
2022/12/25 00:00:51;;;;;;;7.73;4.87;;;8.20;1.00;;;;;;4973102;28;20816;-52
2022/12/25 00:03:16;;;;;;;13.53;7.37;;;8.20;1.00;;;;;;4974317;28;20533;-55
2022/12/25 00:05:42;;;;;;;13.10;6.97;;;8.20;1.00;;;;;;4955787;28;20405;-54
2022/12/25 00:08:09;;;;;;;17.20;8.20;;;8.20;1.00;;;;;;4968581;28;20193;-55
2022/12/25 00:10:34;;;;;;;18.20;7.50;;;8.20;1.00;;;;;;4974104;28;20523;-53
2022/12/25 00:13:00;;;;;;;15.80;7.17;;;8.30;1.00;;;;;;4982290;28;20488;-53
2022/12/25 00:15:26;;;;;;;11.73;7.00;;;8.30;1.00;;;;;;4980553;28;20217;-53
2022/12/25 00:17:52;;;;;;;10.90;6.47;;;8.20;1.00;;;;;;4982897;28;20458;-55
2022/12/25 00:20:18;;;;;;;10.40;6.23;;;8.20;1.00;;;;;;4971921;28;20448;-53
2022/12/25 00:22:43;;;;;;;10.73;5.97;;;8.20;1.00;;;;;;4970961;28;20202;-53
2022/12/25 00:25:09;;;;;;;9.70;6.27;;;8.40;1.00;;;;;;4972370;28;20202;-54
2022/12/25 00:27:36;;;;;;;12.67;7.30;;;8.30;1.00;;;;;;4973267;28;20325;-53
2022/12/25 00:30:03;;;;;;;11.10;7.60;;;8.40;1.00;;;;;;4987503;28;20275;-54
2022/12/25 00:32:29;;;;;;;12.50;8.57;;;8.40;1.00;;;;;;4987714;28;20550;-54
2022/12/25 00:34:55;;;;;;;10.00;6.63;;;8.30;1.00;;;;;;5001015;28;20890;-54
2022/12/25 00:37:20;;;;;;;13.97;8.20;;;8.30;1.00;;;;;;4977464;28;20213;-53
2022/12/25 00:39:48;;;;;;;11.53;7.43;;;8.30;1.00;;;;;;4974119;28;20203;-55
2022/12/25 00:42:19;;;;;;;13.80;7.47;;;8.30;1.00;;;;;;4974755;28;20254;-53
2022/12/25 00:44:49;;;;;;;10.90;8.00;;;8.30;1.00;;;;;;4979773;28;20493;-55
2022/12/25 00:47:16;;;;;;;14.10;8.00;;;8.30;1.00;;;;;;4972845;28;20523;-53
2022/12/25 00:49:41;;;;;;;11.50;7.63;;;8.20;1.00;;;;;;4977004;28;20451;-54
2022/12/25 00:52:07;;;;;;;12.80;7.30;;;8.20;1.00;;;;;;4989102;28;20518;-52
2022/12/25 00:54:33;;;;;;;10.03;6.90;;;8.10;1.00;;;;;;4991124;28;20264;-54
2022/12/25 00:56:59;;;;;;;9.37;6.63;;;8.10;1.00;;;;;;4991354;28;20756;-55
2022/12/25 00:59:24;;;;;;;11.97;6.67;;;8.10;1.00;;;;;;4982828;28;20259;-53
2022/12/25 01:01:50;;;;;;;13.43;5.77;;;8.00;1.00;;;;;;4975079;28;20233;-52
2022/12/25 01:04:15;;;;;;;14.50;5.53;;;7.90;1.00;;;;;;4975852;28;20187;-54
2022/12/25 01:06:41;;;;;;;9.97;4.90;;;7.80;1.00;;;;;;4972359;28;20297;-54
2022/12/25 01:11:51;;;;;;;10.50;5.53;;;7.80;1.00;;;;;;4972444;28;20256;-54
2022/12/25 01:14:16;;;;;;;14.40;4.97;;;7.70;1.00;;;;;;4979342;28;20450;-53
2022/12/25 01:16:42;;;;;;;7.10;4.30;;;7.70;1.00;;;;;;4971130;28;20194;-55
2022/12/25 01:19:08;;;;;;;9.73;4.30;;;7.80;1.00;;;;;;4978057;28;20200;-53
2022/12/25 01:21:33;;;;;;;11.43;3.80;;;7.80;1.00;;;;;;4975660;28;20218;-53
2022/12/25 01:23:59;;;;;;;6.57;3.60;;;7.80;1.00;;;;;;4973086;28;20189;-53
2022/12/25 01:26:26;;;;;;;8.10;4.10;;;7.70;1.00;;;;;;4971554;28;20197;-55
2022/12/25 01:28:52;;;;;;;6.80;4.23;;;7.70;1.00;;;;;;4973134;28;20288;-53
2022/12/25 01:31:20;;;;;;;8.23;3.60;;;7.70;1.00;;;;;;4975233;28;20456;-53
2022/12/25 01:33:47;;;;;;;9.00;3.90;;;7.60;1.00;;;;;;4974341;28;20942;-54
2022/12/25 01:36:14;;;;;;;5.10;3.80;;;7.50;1.00;;;;;;4973198;28;20455;-53
2022/12/25 01:38:40;;;;;;;7.73;4.10;;;7.40;1.00;;;;;;4969827;28;20444;-53
2022/12/25 01:41:06;;;;;;;5.53;3.20;;;7.40;1.00;;;;;;4971933;28;20479;-53
2022/12/25 01:43:33;;;;;;;6.10;3.30;;;7.40;1.00;;;;;;4969169;28;20667;-54
2022/12/25 01:45:59;;;;;;;12.03;4.47;;;7.40;1.00;;;;;;4981830;28;20181;-52
2022/12/25 01:48:32;;;;;;;5.53;3.30;;;7.40;1.00;;;;;;4980284;28;20489;-53
2022/12/25 01:51:05;;;;;;;14.00;4.07;;;7.40;1.00;;;;;;4974237;28;20480;-56
2022/12/25 01:53:31;;;;;;;9.33;4.10;;;7.40;1.00;;;;;;4972363;28;20448;-52
2022/12/25 01:56:05;;;;;;;9.10;3.30;;;7.30;1.00;;;;;;4976774;28;20965;-53
2022/12/25 01:58:32;;;;;;;10.07;4.07;;;7.40;1.00;;;;;;4982615;28;20463;-56
2022/12/25 02:00:58;;;;;;;6.50;3.83;;;7.50;1.00;;;;;;4978789;28;20817;-53
2022/12/25 02:03:24;;;;;;;9.47;3.83;;;7.40;1.00;;;;;;4980995;28;20516;-52
2022/12/25 02:05:50;;;;;;;12.60;3.67;;;7.40;1.00;;;;;;4981079;28;20506;-52
2022/12/25 02:08:18;;;;;;;7.63;4.40;;;7.60;1.00;;;;;;4977163;28;20461;-55
2022/12/25 02:10:44;;;;;;;9.40;4.00;;;7.30;1.00;;;;;;4981014;28;20453;-54
2022/12/25 02:13:15;;;;;;;8.13;4.27;;;7.30;1.00;;;;;;4982692;28;20526;-54
2022/12/25 02:15:56;;;;;;;6.97;4.10;;;7.20;1.00;;;;;;4979194;28;20450;-54
2022/12/25 02:18:28;;;;;;;5.20;4.00;;;7.20;1.00;;;;;;4979542;28;20466;-55
2022/12/25 02:21:09;;;;;;;6.10;3.47;;;7.30;1.00;;;;;;4978563;28;20558;-52
2022/12/25 02:23:46;;;;;;;7.20;4.10;;;7.30;1.00;;;;;;4978627;28;20481;-53
2022/12/25 02:26:31;;;;;;;5.50;4.10;;;7.20;1.00;;;;;;4979678;28;20460;-54
2022/12/25 02:29:01;;;;;;;5.63;4.13;;;7.20;1.00;;;;;;4984235;28;21043;-53
2022/12/25 02:31:41;;;;;;;8.27;4.80;;;7.10;1.00;;;;;;4979321;28;20803;-53
2022/12/25 02:34:14;;;;;;;8.93;4.50;;;7.10;1.00;;;;;;4980276;28;20432;-54
2022/12/25 02:37:17;;;;;;;10.63;4.80;;;7.00;1.00;;;;;;4978561;28;20594;-51
2022/12/25 02:40:09;;;;;;;5.90;4.40;;;7.00;1.00;;;;;;4979554;28;20835;-52
2022/12/25 03:08:36;;;;;;;8.27;5.10;;;6.90;1.00;;;;;;4977481;28;20900;-53
2022/12/25 03:16:53;;;;;;;5.87;4.03;;;7.80;1.00;;;;;;4977508;28;20471;-53
2022/12/25 03:27:53;;;;;;;6.00;3.43;;;6.70;1.00;;;;;;4984367;28;20462;-52
2022/12/25 03:33:13;;;;;;;12.33;4.37;;;6.60;1.00;;;;;;4978780;28;20484;-52
2022/12/25 03:36:03;;;;;;;6.73;4.00;;;6.60;1.00;;;;;;4981102;28;20450;-53
2022/12/25 04:37:08;;;;;;;6.53;4.20;;;6.10;1.00;;;;;;4988390;28;20506;-53
2022/12/25 04:39:33;;;;;;;6.30;4.17;;;6.10;1.00;;;;;;4991798;28;20443;-53
2022/12/25 04:41:59;;;;;;;9.63;4.77;;;6.00;1.00;;;;;;4989855;28;20213;-53
2022/12/25 04:44:25;;;;;;;7.80;5.97;;;6.00;1.00;;;;;;4989275;28;20334;-53
2022/12/25 04:46:51;;;;;;;4.73;3.20;;;6.00;1.00;;;;;;4989559;28;20484;-51
2022/12/25 04:49:17;;;;;;;6.80;3.80;;;6.00;1.00;;;;;;4990214;28;20522;-53
2022/12/25 04:51:42;;;;;;;6.77;4.13;;;5.90;1.00;;;;;;4979156;28;20205;-52
2022/12/25 04:54:08;;;;;;;7.93;3.60;;;5.90;1.00;;;;;;4985168;28;20189;-55
2022/12/25 04:56:34;;;;;;;6.60;4.50;;;5.90;1.00;;;;;;4979935;28;20195;-57
2022/12/25 04:59:00;;;;;;;7.00;4.37;;;5.90;1.00;;;;;;4978489;28;20755;-53
2022/12/25 05:01:25;;;;;;;7.33;4.63;;;5.80;1.00;;;;;;4983783;28;20826;-54
2022/12/25 05:03:51;;;;;;;6.63;4.07;;;5.80;1.00;;;;;;4980367;28;20191;-53
2022/12/25 05:06:17;;;;;;;7.80;3.77;;;5.80;1.00;;;;;;4984927;28;20266;-52
2022/12/25 05:08:42;;;;;;;8.33;4.10;;;5.80;1.00;;;;;;4980190;28;20716;-54
2022/12/25 05:11:11;;;;;;;6.03;3.73;;;5.80;1.00;;;;;;4982123;28;20901;-54
2022/12/25 05:13:37;;;;;;;11.83;4.30;;;5.80;1.00;;;;;;4982936;28;20218;-53
2022/12/25 05:16:05;;;;;;;7.43;4.00;;;5.80;1.00;;;;;;4981666;28;20448;-54
2022/12/25 05:18:30;;;;;;;4.67;3.40;;;5.70;1.00;;;;;;4981946;28;20996;-54
2022/12/25 05:20:56;;;;;;;9.20;4.20;;;5.80;1.00;;;;;;4975700;28;20577;-53
2022/12/25 05:23:22;;;;;;;7.00;3.87;;;5.70;1.00;;;;;;4981354;28;20687;-53
2022/12/25 05:25:48;;;;;;;9.87;3.90;;;5.70;1.00;;;;;;4981183;28;20674;-52
2022/12/25 05:28:14;;;;;;;6.20;3.80;;;5.80;1.00;;;;;;4981623;28;20456;-53
2022/12/25 05:30:39;;;;;;;5.83;3.80;;;5.70;1.00;;;;;;4980839;28;20360;-54
2022/12/25 05:33:05;;;;;;;10.30;4.60;;;5.70;1.00;;;;;;4980129;28;20191;-52
2022/12/25 05:35:31;;;;;;;10.77;4.10;;;5.70;1.00;;;;;;4978926;28;20198;-53
2022/12/25 05:37:57;;;;;;;5.77;4.33;;;5.70;1.00;;;;;;4982085;28;20430;-53
2022/12/25 05:40:23;;;;;;;10.93;4.80;;;5.60;1.00;;;;;;4983063;28;20230;-52
2022/12/25 05:42:49;;;;;;;5.30;3.80;;;5.60;1.00;;;;;;4979504;28;20438;-53
2022/12/25 05:45:14;;;;;;;5.13;3.63;;;5.70;1.00;;;;;;4981637;28;20932;-54
2022/12/25 05:47:40;;;;;;;6.90;4.13;;;5.70;1.00;;;;;;4980594;28;20220;-54
2022/12/25 05:50:06;;;;;;;8.50;4.17;;;5.60;1.00;;;;;;4977910;28;20624;-52
2022/12/25 05:52:32;;;;;;;5.73;4.20;;;5.60;1.00;;;;;;4981803;28;20188;-52
2022/12/25 05:54:59;;;;;;;17.47;4.80;;;5.60;1.00;;;;;;4983029;28;20448;-55
2022/12/25 05:57:28;;;;;;;5.73;3.87;;;5.60;1.00;;;;;;4978417;28;21971;-51
2022/12/25 05:59:53;;;;;;;8.03;4.37;;;5.60;1.00;;;;;;4982784;28;20549;-53
2022/12/25 06:02:19;;;;;;;6.23;4.00;;;5.50;1.00;;;;;;4981723;28;20558;-54
2022/12/25 06:04:45;;;;;;;4.90;3.83;;;5.50;1.00;;;;;;4978813;28;20789;-52
2022/12/25 06:07:10;;;;;;;9.73;4.80;;;5.50;1.00;;;;;;4982001;28;20209;-53
2022/12/25 06:09:36;;;;;;;8.73;4.00;;;5.50;1.00;;;;;;4980548;28;20517;-55
2022/12/25 06:12:01;;;;;;;6.80;3.90;;;5.50;1.00;;;;;;4981229;28;20226;-54
2022/12/25 06:14:27;;;;;;;6.17;3.77;;;5.40;1.00;;;;;;4977555;28;20202;-53
2022/12/25 06:16:53;;;;;;;7.73;4.20;;;5.40;1.00;;;;;;4979812;28;20202;-53
2022/12/25 06:19:20;;;;;;;12.63;4.10;;;5.40;1.00;;;;;;4980258;28;20291;-54
2022/12/25 06:21:46;;;;;;;7.20;4.57;;;5.40;1.00;;;;;;4980790;28;20216;-53
2022/12/25 06:24:12;;;;;;;6.80;4.07;;;5.40;1.00;;;;;;4981773;28;20447;-52
2022/12/25 06:26:37;;;;;;;7.10;3.80;;;5.40;1.00;;;;;;4975387;28;20974;-53
2022/12/25 06:29:03;;;;;;;6.90;4.87;;;5.40;1.00;;;;;;4983698;28;20547;-52
2022/12/25 06:31:29;;;;;;;6.27;4.33;;;5.40;1.00;;;;;;4973832;28;20229;-55
2022/12/25 06:33:54;;;;;;;7.57;4.10;;;5.40;1.00;;;;;;4981010;28;20193;-53
2022/12/25 06:36:25;;;;;;;9.30;4.97;;;5.40;1.00;;;;;;4979863;28;20592;-53
2022/12/25 06:38:51;;;;;;;6.03;4.03;;;5.40;1.00;;;;;;4978092;28;20244;-53
2022/12/25 06:41:22;;;;;;;9.67;4.97;;;5.30;1.00;;;;;;4977063;28;20469;-53
2022/12/25 06:43:53;;;;;;;7.23;4.27;;;5.20;1.00;;;;;;4980423;28;20954;-51
2022/12/25 06:46:20;;;;;;;9.60;4.30;;;5.30;1.00;;;;;;4977815;28;20464;-54
2022/12/25 06:48:49;;;;;;;9.50;5.03;;;5.30;1.00;;;;;;4979583;28;20524;-53
2022/12/25 06:51:16;;;;;;;5.90;4.80;;;5.30;1.00;;;;;;4979615;28;20540;-53
2022/12/25 06:53:42;;;;;;;8.13;4.23;;;5.20;1.00;;;;;;4980765;28;20475;-53
2022/12/25 06:56:14;;;;;;;10.27;4.77;;;5.20;1.00;;;;;;4987954;28;20459;-53
2022/12/25 06:58:42;;;;;;;6.23;4.57;;;5.20;1.00;;;;;;4986601;28;20286;-52
2022/12/25 07:01:13;;;;;;;8.63;4.87;;;5.30;1.00;;;;;;4979923;28;20543;-53
2022/12/25 07:03:41;;;;;;;9.27;4.83;;;5.30;1.00;;;;;;4979084;28;20442;-55
2022/12/25 07:06:07;;;;;;;9.07;4.60;;;5.30;1.00;;;;;;4982057;28;20829;-53
2022/12/25 07:08:33;;;;;;;11.33;4.63;;;5.30;1.00;;;;;;4977611;28;20427;-54
2022/12/25 07:10:59;;;;;;;11.30;5.37;;;5.30;1.00;;;;;;4978775;28;20430;-54
2022/12/25 07:13:24;;;;;;;6.20;4.20;;;5.30;1.00;;;;;;4976373;28;20200;-54
2022/12/25 07:15:58;;;;;;;7.97;5.00;;;5.30;1.00;;;;;;4979227;28;20239;-54
2022/12/25 07:18:24;;;;;;;7.60;5.40;;;5.20;1.00;;;;;;4983645;28;20235;-54
2022/12/25 07:20:50;;;;;;;6.50;4.47;;;5.20;1.00;;;;;;4981691;28;20462;-51
2022/12/25 07:23:15;;;;;;;8.83;4.80;;;5.10;1.00;;;;;;4978940;28;20504;-52
2022/12/25 07:25:41;;;;;;;5.23;4.43;;;5.10;1.00;;;;;;4983717;28;20203;-53
2022/12/25 07:28:07;;;;;;;10.70;6.07;;;5.00;1.00;;;;;;4976619;28;20274;-56
2022/12/25 07:30:32;;;;;;;9.13;5.70;;;5.10;1.00;;;;;;4979773;28;20193;-53
2022/12/25 07:32:58;;;;;;;9.27;5.77;;;5.10;1.00;;;;;;4984500;28;20231;-52
2022/12/25 07:35:24;;;;;;;5.73;4.93;;;5.10;1.00;;;;;;4981389;28;20196;-56
2022/12/25 07:37:49;;;;;;;10.70;5.20;;;5.20;1.00;;;;;;4983399;28;20536;-53
2022/12/25 07:40:15;;;;;;;10.40;5.73;;;5.30;1.00;;;;;;4985380;28;20192;-52
2022/12/25 07:42:40;;;;;;;10.67;6.53;;;5.40;1.00;;;;;;4984937;28;20213;-52
2022/12/25 07:45:06;;;;;;;8.10;5.00;;;5.40;1.00;;;;;;4960268;28;20271;-52
2022/12/25 07:47:32;;;;;;;11.37;6.10;;;5.40;1.00;;;;;;4988379;28;20229;-54
2022/12/25 07:49:57;;;;;;;9.80;5.97;;;5.50;1.00;;;;;;4982854;28;20635;-52
2022/12/25 07:52:23;;;;;;;6.83;5.13;;;5.40;1.00;;;;;;4982350;28;20228;-52
2022/12/25 07:54:49;;;;;;;7.73;5.50;;;5.40;1.00;;;;;;4988480;28;20659;-54
2022/12/25 07:57:15;;;;;;;10.57;6.23;;;5.30;1.00;;;;;;4986760;28;20462;-53
2022/12/25 07:59:40;;;;;;;7.10;5.53;;;5.40;1.00;;;;;;4989720;28;20647;-53
2022/12/25 08:02:06;;;;;;;10.73;6.07;;;5.30;1.00;;;;;;4990247;28;20228;-55
2022/12/25 08:04:31;;;;;;;13.50;5.43;;;5.40;1.00;;;;;;4989223;28;20552;-55
2022/12/25 08:06:57;;;;;;;9.83;6.03;;;5.50;1.00;;;;;;4972839;28;20196;-53
2022/12/25 08:09:23;;;;;;;6.97;5.90;;;5.50;1.00;;;;;;4986949;28;20249;-54
2022/12/25 08:11:48;;;;;;;8.50;6.10;;;5.50;1.00;;;;;;4973783;28;20192;-53
2022/12/25 08:14:15;;;;;;;7.87;5.37;;;5.60;1.00;;;;;;4988333;28;20195;-54
2022/12/25 08:16:41;;;;;;;11.00;6.47;;;5.60;1.00;;;;;;4988415;28;20242;-53
2022/12/25 08:19:09;;;;;;;10.53;5.87;;;5.70;1.00;;;;;;4987641;28;20468;-58
2022/12/25 08:21:35;;;;;;;9.30;5.73;;;5.70;1.00;;;;;;4995510;28;20666;-62
2022/12/25 08:24:02;;;;;;;6.67;5.23;;;5.70;1.00;;;;;;4992247;28;20456;-54
2022/12/25 08:26:28;;;;;;;9.27;5.50;;;5.70;1.00;;;;;;4988116;28;20880;-54
2022/12/25 08:28:53;;;;;;;8.90;6.60;;;5.70;1.00;;;;;;4989227;28;20500;-54
2022/12/25 08:31:25;;;;;;;8.47;5.93;;;5.70;1.00;;;;;;4988126;28;20449;-55
2022/12/25 08:33:53;;;;;;;8.07;5.87;;;5.80;1.00;;;;;;4989729;28;20192;-56
2022/12/25 08:36:19;;;;;;;7.70;5.40;;;5.80;1.00;;;;;;4971529;28;20814;-53
2022/12/25 08:38:46;;;;;;;8.27;6.43;;;5.90;1.00;;;;;;4984938;28;20872;-52
2022/12/25 08:41:12;;;;;;;7.90;6.70;;;5.90;1.00;;;;;;4987768;28;20461;-55
2022/12/25 08:43:38;;;;;;;12.80;7.23;;;6.00;1.00;;;;;;4987902;28;20447;-54
2022/12/25 08:46:04;;;;;;;8.50;6.17;;;6.10;1.00;;;;;;4990207;28;20791;-54
2022/12/25 08:48:32;;;;;;;11.77;7.17;;;6.20;1.00;;;;;;4989635;28;20499;-53
2022/12/25 08:50:58;;;;;;;10.87;6.70;;;6.20;1.00;;;;;;4990079;28;20479;-52
2022/12/25 08:53:24;;;;;;;8.33;6.13;;;6.30;1.00;;;;;;4989097;28;20452;-54
2022/12/25 08:55:59;;;;;;;10.53;6.63;;;6.40;1.00;;;;;;4988055;28;20197;-53
2022/12/25 08:58:26;;;;;;;12.83;8.07;;;6.40;1.00;;;;;;4986906;28;20561;-53
2022/12/25 09:00:52;;;;;;;10.53;6.80;;;6.50;1.00;;;;;;4988672;28;20787;-55
2022/12/25 09:03:18;;;;;;;13.97;7.40;;;6.50;1.00;;;;;;4988803;28;20625;-52
2022/12/25 09:05:43;;;;;;;11.57;7.50;;;6.60;1.00;;;;;;4986443;28;20189;-51
2022/12/25 09:08:09;;;;;;;11.73;7.07;;;6.80;1.00;;;;;;4970772;28;20194;-53
2022/12/25 09:10:36;;;;;;;7.60;6.80;;;6.90;1.00;;;;;;4987348;28;20683;-53
2022/12/25 09:13:02;;;;;;;9.27;6.17;;;6.90;1.00;;;;;;4985875;28;20205;-55
2022/12/25 09:15:28;;;;;;;17.33;7.07;;;7.00;1.00;;;;;;4984895;28;20452;-53
2022/12/25 09:17:53;;;;;;;9.43;6.83;;;7.10;1.00;;;;;;4988478;28;20453;-54
2022/12/25 09:20:19;;;;;;;12.20;7.67;;;7.10;1.00;;;;;;4992433;28;20607;-54
2022/12/25 09:22:44;;;;;;;11.27;6.97;;;7.20;1.00;;;;;;4987029;28;20212;-55
2022/12/25 09:25:10;;;;;;;10.77;7.70;;;7.30;1.00;;;;;;4985550;28;20282;-55
2022/12/25 09:27:36;;;;;;;10.33;7.50;;;7.40;1.00;;;;;;4980737;28;20195;-52
2022/12/25 09:30:02;;;;;;;13.90;8.30;;;7.30;1.00;;;;;;4985131;28;20212;-54
2022/12/25 09:32:27;;;;;;;12.37;7.33;;;7.40;1.00;;;;;;4985925;28;20197;-55
2022/12/25 09:34:53;;;;;;;11.23;7.83;;;7.60;1.00;;;;;;4988573;28;21019;-53
2022/12/25 09:37:19;;;;;;;8.00;6.60;;;7.60;1.00;;;;;;4989077;28;20619;-54
2022/12/25 09:39:44;;;;;;;12.00;7.73;;;7.70;1.00;;;;;;4985618;28;20231;-54
2022/12/25 09:42:17;;;;;;;10.50;7.87;;;7.80;1.00;;;;;;4969761;28;20237;-54
2022/12/25 09:45:04;;;;;;;11.57;6.97;;;7.80;1.00;;;;;;4988444;28;20191;-54
2022/12/25 09:47:34;;;;;;;13.40;7.23;;;8.00;1.00;;;;;;4987252;28;20540;-52
2022/12/25 09:50:21;;;;;;;10.40;6.77;;;8.00;1.00;;;;;;4990411;28;20475;-54
2022/12/25 09:52:59;;;;;;;10.10;7.20;;;8.20;1.00;;;;;;4985838;28;20507;-55
2022/12/25 09:55:29;;;;;;;11.00;7.27;;;8.20;1.00;;;;;;4988264;28;20415;-54
2022/12/25 09:58:00;;;;;;;10.57;7.07;;;8.30;1.00;;;;;;4984319;28;20437;-54
2022/12/25 10:00:37;;;;;;;11.60;7.03;;;8.30;1.00;;;;;;4986721;28;20478;-53
2022/12/25 10:03:38;;;;;;;9.50;7.27;;;8.40;1.00;;;;;;4987979;28;20477;-52
2022/12/25 10:06:17;;;;;;;7.73;6.30;;;8.70;1.00;;;;;;4982868;28;20492;-53
2022/12/25 10:09:06;;;;;;;8.30;6.63;;;8.60;1.00;;;;;;4989541;28;20530;-56
2022/12/25 10:11:46;;;;;;;10.17;6.90;;;8.80;1.00;;;;;;4986073;28;20423;-54
2022/12/25 10:14:21;;;;;;;9.60;6.80;;;8.80;1.00;;;;;;4992055;28;20503;-54
2022/12/25 10:16:53;;;;;;;9.73;7.30;;;8.80;1.00;;;;;;4991421;28;20440;-54
2022/12/25 10:19:23;;;;;;;8.73;6.93;;;8.90;1.00;;;;;;4987324;28;20516;-54
2022/12/25 10:21:52;;;;;;;11.20;6.83;;;9.10;1.00;;;;;;4987475;28;20478;-53
2022/12/25 10:24:40;;;;;;;12.13;7.00;;;9.10;1.00;;;;;;4987706;28;20536;-54
2022/12/25 10:27:13;;;;;;;10.17;7.17;;;9.20;1.00;;;;;;4989089;28;20461;-54
2022/12/25 10:29:40;;;;;;;7.73;6.10;;;9.20;1.00;;;;;;4988565;28;20433;-55
2022/12/25 10:32:07;;;;;;;10.60;6.70;;;9.10;1.00;;;;;;4987940;28;20423;-55
2022/12/25 10:34:34;;;;;;;7.20;5.87;;;9.10;1.00;;;;;;4986637;28;20493;-55
2022/12/25 10:37:00;;;;;;;7.70;6.03;;;9.00;1.00;;;;;;4987768;28;20982;-54
2022/12/25 10:39:26;;;;;;;11.90;6.40;;;9.00;1.00;;;;;;4985851;28;20574;-55
2022/12/25 10:42:16;;;;;;;8.03;6.87;;;9.00;1.00;;;;;;4987926;28;20654;-53
2022/12/25 10:45:10;;;;;;;10.00;6.83;;;9.00;1.00;;;;;;4985580;28;20196;-55
2022/12/25 10:47:41;;;;;;;11.40;6.90;;;9.00;1.00;;;;;;4984764;28;20455;-56
2022/12/25 10:50:20;;;;;;;9.07;6.90;;;9.10;1.00;;;;;;4983845;28;20609;-53
2022/12/25 10:53:08;;;;;;;12.10;7.97;;;9.30;1.00;;;;;;4987097;28;20463;-55
2022/12/25 10:55:33;;;;;;;8.00;6.00;;;9.40;1.00;;;;;;4984775;28;20545;-56
2022/12/25 10:58:01;;;;;;;7.93;5.93;;;9.30;1.00;;;;;;4992800;28;20965;-57
2022/12/25 11:00:31;;;;;;;11.47;6.30;;;9.20;1.00;;;;;;4987089;28;20199;-55
2022/12/25 11:02:58;;;;;;;11.13;6.30;;;9.30;1.00;;;;;;4987637;28;20835;-55
2022/12/25 11:05:27;;;;;;;9.53;6.50;;;9.40;1.00;;;;;;4987261;28;20482;-56
2022/12/25 11:07:54;;;;;;;10.40;6.27;;;9.20;1.00;;;;;;4985109;28;20504;-56
2022/12/25 11:10:24;;;;;;;11.93;5.73;;;9.60;1.00;;;;;;4986266;28;20532;-55
2022/12/25 11:12:51;;;;;;;8.00;6.40;;;9.90;1.00;;;;;;4983095;28;20428;-54
2022/12/25 11:15:35;;;;;;;13.10;6.00;;;10.10;1.00;;;;;;4979912;28;20836;-56
2022/12/25 11:18:03;;;;;;;9.97;6.93;;;10.30;1.00;;;;;;4985621;28;20453;-54
2022/12/25 11:20:28;;;;;;;7.73;5.77;;;10.50;1.00;;;;;;4984159;28;20541;-57
2022/12/25 11:22:54;;;;;;;6.97;5.67;;;10.80;1.00;;;;;;4983002;28;20902;-55
2022/12/25 11:25:26;;;;;;;8.63;6.03;;;10.90;1.00;;;;;;4984311;28;20191;-55
2022/12/25 11:28:00;;;;;;;11.37;6.53;;;11.10;1.00;;;;;;4967387;28;20195;-56
2022/12/25 11:30:29;;;;;;;7.20;5.20;;;11.20;1.00;;;;;;4986652;28;20478;-56
2022/12/25 11:33:00;;;;;;;7.60;5.70;;;11.30;1.00;;;;;;4985180;28;20425;-55
2022/12/25 11:35:31;;;;;;;7.77;5.73;;;11.40;1.00;;;;;;4982498;28;20946;-55
2022/12/25 11:37:56;;;;;;;9.17;6.17;;;11.30;1.00;;;;;;4986426;28;20457;-55
2022/12/25 11:40:33;;;;;;;8.30;5.83;;;11.20;1.00;;;;;;4966943;28;20430;-54
2022/12/25 11:43:08;;;;;;;10.33;5.70;;;11.00;1.00;;;;;;4984790;28;20191;-57
2022/12/25 11:45:37;;;;;;;9.33;6.57;;;11.10;1.00;;;;;;4983440;28;21411;-54
2022/12/25 11:48:22;;;;;;;6.47;5.27;;;11.00;1.00;;;;;;4982648;28;20469;-56
2022/12/25 11:50:53;;;;;;;7.03;5.50;;;10.90;1.00;;;;;;4983297;28;20420;-56
2022/12/25 11:53:36;;;;;;;5.80;4.97;;;11.00;1.00;;;;;;4979372;28;20528;-55
2022/12/25 11:56:07;;;;;;;10.10;6.83;;;11.00;1.00;;;;;;4979893;28;20450;-55
2022/12/25 11:58:47;;;;;;;9.27;5.80;;;11.00;1.00;;;;;;4984637;28;20452;-55
2022/12/25 12:01:53;;;;;;;7.03;5.63;;;11.10;1.00;;;;;;4985929;28;20469;-56
2022/12/25 12:04:37;;;;;;;6.87;5.43;;;11.10;1.00;;;;;;4908628;29;20492;-55
2022/12/25 12:07:19;;;;;;;7.37;6.27;;;11.10;1.00;;;;;;4906250;29;20429;-56
2022/12/25 12:10:06;;;;;;;11.90;5.87;;;11.20;1.00;;;;;;4961044;28;20523;-55
2022/12/25 12:12:40;;;;;;;6.47;4.80;;;11.10;1.00;;;;;;4983358;28;20453;-55
2022/12/25 12:15:27;;;;;;;8.73;5.73;;;11.10;1.00;;;;;;4989394;28;20434;-55
2022/12/25 12:17:53;;;;;;;11.10;6.00;;;11.10;1.00;;;;;;4984523;28;20424;-55
2022/12/25 12:20:37;;;;;;;9.20;5.77;;;11.10;1.00;;;;;;4986770;28;20876;-55
2022/12/25 12:23:11;;;;;;;8.23;5.20;;;11.00;1.00;;;;;;4992932;28;20456;-57
2022/12/25 12:25:41;;;;;;;8.33;5.77;;;11.10;1.00;;;;;;4991449;28;21002;-55
2022/12/25 12:28:18;;;;;;;8.00;6.20;;;11.00;1.00;;;;;;4987220;28;20457;-56
2022/12/25 12:30:54;;;;;;;10.40;5.50;;;11.10;1.00;;;;;;4983499;28;20428;-54
2022/12/25 12:33:20;;;;;;;10.93;6.50;;;11.20;1.00;;;;;;4969997;28;20449;-57
2022/12/25 12:35:47;;;;;;;9.50;6.30;;;11.20;1.00;;;;;;4989283;28;21060;-55
2022/12/25 12:38:18;;;;;;;12.00;6.67;;;11.30;1.00;;;;;;4979180;28;20191;-56
2022/12/25 12:40:53;;;;;;;9.67;6.30;;;11.20;1.00;;;;;;4987910;28;20463;-54
2022/12/25 12:43:33;;;;;;;16.60;7.27;;;11.30;1.00;;;;;;4985586;28;20424;-54
2022/12/25 12:46:20;;;;;;;12.57;6.40;;;11.30;1.00;;;;;;4985899;28;20417;-54
2022/12/25 12:48:49;;;;;;;9.03;6.60;;;11.40;1.00;;;;;;4989073;28;20473;-54
2022/12/25 12:51:36;;;;;;;11.77;6.27;;;11.40;1.00;;;;;;4965870;28;20479;-55
2022/12/25 12:54:19;;;;;;;11.70;6.63;;;11.30;1.00;;;;;;4983230;28;20546;-54
2022/12/25 12:56:56;;;;;;;7.30;5.63;;;11.30;1.00;;;;;;4977472;28;20440;-55
2022/12/25 12:59:24;;;;;;;10.10;6.10;;;11.30;1.00;;;;;;4985986;28;20451;-56
2022/12/25 13:02:12;;;;;;;8.17;5.03;;;11.30;1.00;;;;;;4977386;28;20493;-55
2022/12/25 13:04:44;;;;;;;7.83;5.83;;;11.30;1.00;;;;;;4986917;28;20427;-56
2022/12/25 13:07:43;;;;;;;8.10;5.13;;;11.20;1.00;;;;;;4981324;28;20431;-55
2022/12/25 13:10:30;;;;;;;8.63;5.17;;;11.20;1.00;;;;;;4987378;28;20442;-55
2022/12/25 13:13:01;;;;;;;12.23;5.53;;;11.20;1.00;;;;;;4970289;28;21137;-55
2022/12/25 13:15:30;;;;;;;9.27;5.43;;;11.10;1.00;;;;;;4985196;28;20498;-55
2022/12/25 13:18:04;;;;;;;8.87;6.20;;;11.10;1.00;;;;;;4981297;28;20447;-56
2022/12/25 13:20:43;;;;;;;10.10;6.70;;;11.10;1.00;;;;;;4981865;28;21860;-54
2022/12/25 13:23:31;;;;;;;11.97;6.60;;;11.10;1.00;;;;;;4982775;28;20426;-54
2022/12/25 13:26:04;;;;;;;8.20;5.57;;;11.10;1.00;;;;;;4987613;28;20454;-55
2022/12/25 13:28:35;;;;;;;12.30;6.20;;;11.00;1.00;;;;;;4975891;28;20479;-55
2022/12/25 13:31:23;;;;;;;9.73;6.57;;;11.00;1.00;;;;;;4977163;28;20461;-58
2022/12/25 13:33:59;;;;;;;12.03;7.03;;;11.00;1.00;;;;;;4985362;28;20521;-56
2022/12/25 13:36:27;;;;;;;12.60;6.07;;;11.00;1.00;;;;;;4960205;28;20570;-55
2022/12/25 13:38:56;;;;;;;8.77;6.57;;;10.90;1.00;;;;;;4976849;28;20526;-58
2022/12/25 13:44:22;;;;;;;10.00;6.00;;;10.80;1.00;;;;;;4981821;28;20563;-57
2022/12/25 13:46:48;;;;;;;15.10;6.70;;;10.80;1.00;;;;;;4982591;28;20822;-57
2022/12/25 13:49:16;;;;;;;7.90;6.03;;;10.80;1.00;;;;;;4986323;28;20468;-57
2022/12/25 13:51:42;;;;;;;8.60;7.20;;;10.70;1.00;;;;;;4983826;28;20197;-56
2022/12/25 13:54:12;;;;;;;8.60;7.33;;;10.70;1.00;;;;;;4981516;28;20479;-55
2022/12/25 13:56:49;;;;;;;10.57;6.37;;;10.70;1.00;;;;;;4988046;28;20513;-56
2022/12/25 13:59:23;;;;;;;9.20;6.10;;;10.70;1.00;;;;;;4976722;28;20445;-58
2022/12/25 14:01:52;;;;;;;10.90;6.43;;;10.60;1.00;;;;;;4989251;28;20489;-55
2022/12/25 14:04:23;;;;;;;9.90;6.30;;;10.50;1.00;;;;;;4981987;28;20509;-56
2022/12/25 14:06:50;;;;;;;10.07;6.50;;;10.60;1.00;;;;;;4984617;28;20451;-57
2022/12/25 14:09:16;;;;;;;9.33;6.90;;;10.50;1.00;;;;;;4976755;28;20439;-55
2022/12/25 14:11:50;;;;;;;9.07;6.67;;;10.40;1.00;;;;;;4988887;28;20455;-56
2022/12/25 14:14:22;;;;;;;11.87;6.60;;;10.40;1.00;;;;;;4979994;28;20533;-55
2022/12/25 14:16:49;;;;;;;11.77;6.53;;;10.50;1.00;;;;;;4963439;28;20462;-57
2022/12/25 14:19:33;;;;;;;13.77;7.53;;;10.60;1.00;;;;;;4979286;28;20500;-55
2022/12/25 14:22:01;;;;;;;11.03;7.10;;;11.30;1.00;;;;;;4978641;28;20481;-56
2022/12/25 14:24:30;;;;;;;11.50;7.13;;;10.60;1.00;;;;;;4979027;28;20457;-56
2022/12/25 14:26:58;;;;;;;7.43;6.27;;;10.70;1.00;;;;;;4987050;28;20950;-56
2022/12/25 14:29:23;;;;;;;10.97;6.20;;;10.60;1.00;;;;;;4980263;28;20444;-55
2022/12/25 14:31:49;;;;;;;10.93;7.27;;;10.50;1.00;;;;;;4977866;28;21920;-56
2022/12/25 14:34:19;;;;;;;13.00;6.73;;;10.50;1.00;;;;;;4981009;28;20879;-56
2022/12/25 14:36:45;;;;;;;13.10;6.97;;;10.50;1.00;;;;;;4987342;28;20423;-55
2022/12/25 14:39:36;;;;;;;9.00;6.60;;;10.50;1.00;;;;;;4974000;28;20433;-55
2022/12/25 14:42:19;;;;;;;11.73;6.77;;;10.50;1.00;;;;;;4982101;28;20448;-54
2022/12/25 14:45:14;;;;;;;9.30;7.00;;;10.60;1.00;;;;;;4977692;28;20450;-54
2022/12/25 14:48:35;;;;;;;9.47;6.87;;;10.70;1.00;;;;;;4966295;28;20505;-55
2022/12/25 14:51:07;;;;;;;12.77;5.97;;;10.60;1.00;;;;;;4946916;28;20552;-56
2022/12/25 14:53:44;;;;;;;6.97;6.20;;;10.50;1.00;;;;;;4980461;28;20544;-55
2022/12/25 14:56:15;;;;;;;7.60;6.07;;;10.50;1.00;;;;;;4981782;28;20991;-55
2022/12/25 14:58:48;;;;;;;11.60;6.57;;;10.50;1.00;;;;;;4986260;28;20931;-55
2022/12/25 15:01:35;;;;;;;11.23;6.87;;;10.50;1.00;;;;;;4988812;28;20487;-67
2022/12/25 15:04:09;;;;;;;9.10;6.07;;;10.50;1.00;;;;;;4984615;28;20954;-58